Time;durP1;ratioP1;P1;durP2;ratioP2;P2;SDS_P1;SDS_P2;PMS_P1;PMS_P2;Temp;Humidity;BMP_temperature;BMP_pressure;BME280_temperature;BME280_humidity;BME280_pressure;Samples;Min_cycle;Max_cycle;Signal;HPM_P1;HPM_P2
2023/06/19 00:01:09;;;;;;;1999.90;999.90;;;;;;;28.69;38.42;100825.66;5054843;28;20036;-74
2023/06/19 00:03:35;;;;;;;1999.90;999.90;;;;;;;30.14;35.87;100819.91;5054007;28;20059;-75
2023/06/19 00:06:00;;;;;;;1999.90;999.90;;;;;;;30.99;34.42;100817.28;5054554;28;20037;-75
2023/06/19 00:08:26;;;;;;;1999.90;999.90;;;;;;;30.71;34.56;100819.97;5054233;28;20388;-74
2023/06/19 00:10:51;;;;;;;1999.90;999.90;;;;;;;29.46;37.26;100818.84;5053407;28;20555;-75
2023/06/19 00:13:17;;;;;;;1999.90;999.90;;;;;;;29.01;37.85;100830.03;5072050;28;20036;-74
2023/06/19 00:15:42;;;;;;;1999.90;999.90;;;;;;;29.78;37.04;100829.34;5071356;28;20400;-74
2023/06/19 00:18:09;;;;;;;1999.90;999.90;;;;;;;28.70;39.05;100843.47;5054394;28;20020;-74
2023/06/19 00:20:36;;;;;;;1999.90;999.90;;;;;;;29.87;37.07;100834.91;5071964;28;20024;-74
2023/06/19 00:23:01;;;;;;;1999.90;999.90;;;;;;;29.74;37.09;100830.63;5053741;28;20018;-75
2023/06/19 00:25:26;;;;;;;1999.90;999.90;;;;;;;27.38;42.28;100840.06;5054489;28;20031;-73
2023/06/19 00:27:52;;;;;;;1999.90;999.90;;;;;;;28.07;41.66;100836.25;5053823;28;20020;-74
2023/06/19 00:30:17;;;;;;;1999.90;999.90;;;;;;;29.01;39.51;100840.78;5054123;28;20119;-74
2023/06/19 00:32:49;;;;;;;1999.90;999.90;;;;;;;29.40;38.98;100846.31;5053681;28;20025;-74
2023/06/19 00:35:17;;;;;;;1999.90;999.90;;;;;;;29.37;39.21;100846.59;5053968;28;20051;-75
2023/06/19 00:37:44;;;;;;;1999.90;999.90;;;;;;;30.00;38.01;100845.44;5070887;28;20032;-75
2023/06/19 00:40:16;;;;;;;1999.90;999.90;;;;;;;28.57;41.03;100839.13;5054385;28;20077;-74
2023/06/19 00:42:41;;;;;;;1999.90;999.90;;;;;;;28.83;40.53;100849.47;5053960;28;20119;-74
2023/06/19 00:45:07;;;;;;;1999.90;999.90;;;;;;;28.14;42.15;100841.91;5071974;28;20104;-74
2023/06/19 00:47:34;;;;;;;1999.90;999.90;;;;;;;28.20;42.25;100853.00;5071952;28;20221;-74
2023/06/19 00:49:59;;;;;;;1999.90;999.90;;;;;;;28.64;41.63;100854.75;5053368;28;20028;-74
2023/06/19 00:52:25;;;;;;;1999.90;999.90;;;;;;;28.31;42.43;100854.78;5053512;28;20081;-72
2023/06/19 00:54:50;;;;;;;1999.90;999.90;;;;;;;28.09;42.99;100851.22;5070663;28;20066;-74
2023/06/19 00:57:16;;;;;;;1999.90;999.90;;;;;;;29.36;40.14;100855.66;5054131;28;20031;-75
2023/06/19 00:59:41;;;;;;;1999.90;999.90;;;;;;;27.02;45.55;100853.59;5053406;28;20021;-73
2023/06/19 01:02:07;;;;;;;1999.90;999.90;;;;;;;27.34;45.57;100852.00;5053884;28;20472;-74
2023/06/19 01:04:32;;;;;;;1999.90;999.90;;;;;;;28.20;43.73;100849.47;5053420;28;20135;-74
2023/06/19 01:07:09;;;;;;;1999.90;999.90;;;;;;;27.96;45.30;100857.72;5070178;28;20036;-74
2023/06/19 01:09:57;;;;;;;1999.90;999.90;;;;;;;27.40;47.22;100849.69;5053225;28;20024;-74
2023/06/19 01:12:33;;;;;;;1999.90;999.90;;;;;;;27.31;47.05;100860.28;5036393;28;20032;-72
2023/06/19 01:15:02;;;;;;;1999.90;999.90;;;;;;;26.84;48.76;100858.59;5052339;28;20024;-74
2023/06/19 01:17:28;;;;;;;1999.90;999.90;;;;;;;28.08;45.23;100851.34;5052861;28;20020;-74
2023/06/19 01:19:58;;;;;;;1999.90;999.90;;;;;;;29.08;43.19;100861.63;5070046;28;20484;-74
2023/06/19 01:22:32;;;;;;;1999.90;999.90;;;;;;;27.50;47.01;100862.38;5070722;28;20024;-73
2023/06/19 01:24:58;;;;;;;1999.90;999.90;;;;;;;28.30;44.70;100862.97;5052400;28;20032;-74
2023/06/19 01:27:25;;;;;;;1999.90;999.90;;;;;;;28.21;45.61;100853.88;5070002;28;20033;-74
2023/06/19 01:29:53;;;;;;;1999.90;999.90;;;;;;;29.25;43.19;100859.28;5052173;28;20498;-74
2023/06/19 01:32:29;;;;;;;1999.90;999.90;;;;;;;28.19;45.53;100856.69;5052692;28;20120;-74
2023/06/19 01:34:57;;;;;;;1999.90;999.90;;;;;;;27.88;47.16;100867.28;5069548;28;20032;-73
2023/06/19 01:37:27;;;;;;;1999.90;999.90;;;;;;;28.21;46.31;100849.34;5052648;28;20472;-74
2023/06/19 01:39:55;;;;;;;1999.90;999.90;;;;;;;28.70;44.88;100854.22;5052301;28;20033;-73
2023/06/19 01:42:21;;;;;;;1999.90;999.90;;;;;;;28.87;44.25;100856.28;5052445;28;20042;-74
2023/06/19 01:44:47;;;;;;;1999.90;999.90;;;;;;;28.22;45.85;100850.19;5070276;28;20101;-74
2023/06/19 01:47:13;;;;;;;1999.90;999.90;;;;;;;28.06;46.20;100856.03;5051989;28;20035;-74
2023/06/19 01:49:39;;;;;;;1999.90;999.90;;;;;;;27.19;48.49;100852.25;5069864;28;20016;-73
2023/06/19 01:52:05;;;;;;;1999.90;999.90;;;;;;;28.50;45.34;100848.69;5052359;28;20484;-74
2023/06/19 01:54:30;;;;;;;1999.90;999.90;;;;;;;29.52;43.08;100839.81;5069623;28;20024;-74
2023/06/19 01:56:57;;;;;;;1999.90;999.90;;;;;;;27.97;46.51;100835.25;5069937;28;20105;-73
2023/06/19 01:59:22;;;;;;;1999.90;999.90;;;;;;;28.98;44.13;100841.06;5052390;28;20024;-74
2023/06/19 02:01:48;;;;;;;1999.90;999.90;;;;;;;28.54;44.69;100855.50;5051569;28;20028;-74
2023/06/19 02:04:13;;;;;;;1999.90;999.90;;;;;;;28.11;45.66;100853.81;5052468;28;20061;-74
2023/06/19 02:06:38;;;;;;;1999.90;999.90;;;;;;;27.62;47.29;100852.47;5073700;28;20063;-74
2023/06/19 02:09:04;;;;;;;1999.90;999.90;;;;;;;27.87;47.84;100857.50;5055418;28;20024;-73
2023/06/19 02:11:29;;;;;;;1999.90;999.90;;;;;;;27.93;47.39;100857.00;5056164;28;20480;-74
2023/06/19 02:13:55;;;;;;;1999.90;999.90;;;;;;;28.15;47.00;100857.06;5055919;28;20059;-73
2023/06/19 02:16:20;;;;;;;1999.90;999.90;;;;;;;27.57;48.72;100856.41;5072991;28;20032;-74
2023/06/19 02:18:46;;;;;;;1999.90;999.90;;;;;;;28.58;45.52;100851.56;5073563;28;20434;-71
2023/06/19 02:21:11;;;;;;;1999.90;999.90;;;;;;;28.14;47.79;100852.66;5055826;28;20170;-73
2023/06/19 02:23:36;;;;;;;1999.90;999.90;;;;;;;27.39;49.66;100864.09;5072496;28;20053;-72
2023/06/19 02:26:02;;;;;;;1999.90;999.90;;;;;;;27.77;49.14;100856.59;5073694;28;20451;-73
2023/06/19 02:28:27;;;;;;;1999.90;999.90;;;;;;;28.03;47.93;100861.66;5055666;28;20028;-73
2023/06/19 02:30:54;;;;;;;1999.90;999.90;;;;;;;27.20;52.04;100859.34;5054606;28;20032;-73
2023/06/19 02:33:19;;;;;;;1999.90;999.90;;;;;;;27.63;50.43;100865.78;5055651;28;20024;-73
2023/06/19 02:35:45;;;;;;;1999.90;999.90;;;;;;;27.57;49.77;100877.88;5073073;28;20387;-73
2023/06/19 02:38:12;;;;;;;1999.90;999.90;;;;;;;26.28;55.60;100878.03;5055137;28;20016;-72
2023/06/19 02:40:38;;;;;;;1999.90;999.90;;;;;;;26.69;55.79;100873.16;5055343;28;20116;-73
2023/06/19 02:43:03;;;;;;;1999.90;999.90;;;;;;;25.87;58.18;100893.53;5055466;28;20066;-72
2023/06/19 02:45:28;;;;;;;1999.90;999.90;;;;;;;27.73;53.80;100898.09;5072643;28;20036;-73
2023/06/19 02:47:54;;;;;;;1999.90;999.90;;;;;;;28.46;51.14;100879.50;5054747;28;20052;-73
2023/06/19 02:50:19;;;;;;;1999.90;999.90;;;;;;;26.85;56.08;100900.50;5073069;28;20472;-73
2023/06/19 02:52:45;;;;;;;1999.90;999.90;;;;;;;26.67;57.09;100900.09;5054383;28;20024;-73
2023/06/19 02:55:10;;;;;;;1999.90;999.90;;;;;;;27.15;54.67;100892.84;5054992;28;20055;-73
2023/06/19 02:57:36;;;;;;;1999.90;999.90;;;;;;;27.64;54.09;100898.84;5072251;28;20036;-72
2023/06/19 03:00:02;;;;;;;1999.90;999.90;;;;;;;26.31;59.10;100901.94;5055232;28;20050;-73
2023/06/19 03:02:27;;;;;;;1999.90;999.90;;;;;;;26.03;59.58;100900.47;5055169;28;20051;-74
2023/06/19 03:04:52;;;;;;;1999.90;999.90;;;;;;;28.11;52.72;100907.53;5072342;28;20086;-73
2023/06/19 03:07:18;;;;;;;1999.90;999.90;;;;;;;27.86;53.24;100909.53;5055064;28;20032;-73
2023/06/19 03:09:43;;;;;;;1999.90;999.90;;;;;;;27.81;52.08;100922.47;5071793;28;20048;-64
2023/06/19 03:12:09;;;;;;;1999.90;999.90;;;;;;;27.04;54.16;100907.13;5071246;28;20497;-65
2023/06/19 03:14:35;;;;;;;1999.90;999.90;;;;;;;26.67;55.49;100918.00;5071235;28;20032;-64
2023/06/19 03:17:00;;;;;;;1999.90;999.90;;;;;;;26.52;56.04;100923.56;5070946;28;20430;-65
2023/06/19 03:19:26;;;;;;;1999.90;999.90;;;;;;;28.33;50.15;100927.22;5070855;28;20039;-65
2023/06/19 03:21:51;;;;;;;1999.90;999.90;;;;;;;27.05;53.81;100927.59;5071034;28;20048;-65
2023/06/19 03:24:16;;;;;;;1999.90;999.90;;;;;;;26.77;54.59;100927.06;5053306;28;20062;-64
2023/06/19 03:26:42;;;;;;;1999.90;999.90;;;;;;;26.31;56.87;100941.25;5070178;28;20039;-65
2023/06/19 03:29:07;;;;;;;1999.90;999.90;;;;;;;26.63;56.42;100940.66;5053075;28;20092;-65
2023/06/19 03:31:33;;;;;;;1999.90;999.90;;;;;;;27.03;54.33;100932.25;5053450;28;20028;-64
2023/06/19 03:33:58;;;;;;;1999.90;999.90;;;;;;;27.36;51.89;100944.84;5052145;28;20457;-65
2023/06/19 03:36:24;;;;;;;1999.90;999.90;;;;;;;27.61;51.32;100952.78;5053218;28;20024;-64
2023/06/19 03:38:49;;;;;;;1999.90;999.90;;;;;;;27.56;49.80;100948.63;5052758;28;20035;-64
2023/06/19 03:41:14;;;;;;;1999.90;999.90;;;;;;;26.59;53.63;100946.22;5070385;28;20028;-65
2023/06/19 03:43:40;;;;;;;1999.90;999.90;;;;;;;27.50;50.44;100957.16;5052750;28;20020;-64
2023/06/19 03:46:05;;;;;;;1999.90;999.90;;;;;;;27.02;52.56;100962.72;5053089;28;20044;-65
2023/06/19 03:48:31;;;;;;;1999.90;999.90;;;;;;;27.80;49.95;100969.09;5052431;28;20025;-64
2023/06/19 03:50:56;;;;;;;1999.90;999.90;;;;;;;27.27;50.48;100980.41;5070530;28;20765;-64
2023/06/19 03:53:22;;;;;;;1999.90;999.90;;;;;;;26.88;51.75;100971.81;5052753;28;20067;-65
2023/06/19 03:55:47;;;;;;;1999.90;999.90;;;;;;;26.30;54.78;100977.06;5051376;28;20140;-66
2023/06/19 03:58:13;;;;;;;1999.90;999.90;;;;;;;27.65;50.19;100979.25;5052917;28;20031;-66
2023/06/19 04:00:38;;;;;;;1999.90;999.90;;;;;;;27.07;50.68;100993.56;5070250;28;20532;-66
2023/06/19 04:03:04;;;;;;;1999.90;999.90;;;;;;;26.86;51.86;101011.28;5070329;28;20032;-66
2023/06/19 04:05:29;;;;;;;1999.90;999.90;;;;;;;25.73;54.77;100984.69;5070516;28;20121;-66
2023/06/19 04:07:54;;;;;;;1999.90;999.90;;;;;;;26.31;53.33;101006.41;5051326;28;20040;-66
2023/06/19 04:10:20;;;;;;;1999.90;999.90;;;;;;;26.15;54.68;101017.41;5070535;28;20024;-66
2023/06/19 04:12:47;;;;;;;1999.90;999.90;;;;;;;26.86;52.69;101017.53;5069894;28;20050;-65
2023/06/19 04:15:13;;;;;;;1999.90;999.90;;;;;;;26.96;51.95;101022.19;5051677;28;20020;-65
2023/06/19 04:17:38;;;;;;;1999.90;999.90;;;;;;;26.20;54.14;101020.59;5052276;28;20548;-65
2023/06/19 04:20:10;;;;;;;1999.90;999.90;;;;;;;27.06;51.68;101018.66;5070781;28;20039;-65
2023/06/19 04:22:40;;;;;;;1999.90;999.90;;;;;;;26.31;53.74;101043.06;5051197;28;20027;-64
2023/06/19 04:25:10;;;;;;;1999.90;999.90;;;;;;;25.08;57.62;101037.31;5052424;28;20476;-65
2023/06/19 04:27:35;;;;;;;1999.90;999.90;;;;;;;26.44;52.76;101048.38;5051234;28;20036;-65
2023/06/19 04:30:03;;;;;;;1999.90;999.90;;;;;;;25.87;54.70;101056.84;5051567;28;20024;-65
2023/06/19 04:32:29;;;;;;;1999.90;999.90;;;;;;;26.22;52.79;101056.16;5052200;28;20082;-65
2023/06/19 04:34:55;;;;;;;1999.90;999.90;;;;;;;26.28;52.18;101059.34;5051804;28;20133;-66
2023/06/19 04:37:20;;;;;;;1999.90;999.90;;;;;;;27.01;49.94;101057.53;5051712;28;20133;-65
2023/06/19 04:39:46;;;;;;;1999.90;999.90;;;;;;;25.59;54.53;101065.97;5069389;28;20099;-66
2023/06/19 04:42:20;;;;;;;1999.90;999.90;;;;;;;26.39;51.87;101067.47;5052328;28;20032;-65
2023/06/19 04:44:49;;;;;;;1999.90;999.90;;;;;;;27.19;49.64;101061.50;5050834;28;20474;-65
2023/06/19 04:47:17;;;;;;;1999.90;999.90;;;;;;;27.39;48.46;101072.56;5051719;28;20024;-65
2023/06/19 04:49:43;;;;;;;1999.90;999.90;;;;;;;27.07;49.40;101074.03;5051345;28;20039;-65
2023/06/19 04:52:09;;;;;;;1999.90;999.90;;;;;;;27.97;46.81;101082.38;5069103;28;20024;-65
2023/06/19 04:54:37;;;;;;;1999.90;999.90;;;;;;;26.44;50.97;101089.41;5051703;28;20058;-65
2023/06/19 04:57:03;;;;;;;1999.90;999.90;;;;;;;27.19;48.95;101077.59;5051155;28;20059;-65
2023/06/19 04:59:30;;;;;;;1999.90;999.90;;;;;;;27.09;47.70;101082.81;5051702;28;20020;-65
2023/06/19 05:01:59;;;;;;;1999.90;999.90;;;;;;;28.04;45.58;101083.59;5051400;28;20476;-65
2023/06/19 05:04:24;;;;;;;1999.90;999.90;;;;;;;26.70;48.82;101092.03;5050593;28;20077;-65
2023/06/19 05:06:50;;;;;;;1999.90;999.90;;;;;;;26.11;49.98;101092.72;5051249;28;20107;-65
2023/06/19 05:09:16;;;;;;;1999.90;999.90;;;;;;;25.65;51.77;101094.13;5069594;28;20508;-64
2023/06/19 05:11:42;;;;;;;1999.90;999.90;;;;;;;26.48;49.79;101092.75;5050483;28;20024;-65
2023/06/19 05:14:07;;;;;;;1999.90;999.90;;;;;;;27.61;46.37;101089.69;5069691;28;20103;-65
2023/06/19 05:16:33;;;;;;;1999.90;999.90;;;;;;;26.56;48.55;101096.56;5051525;28;20496;-64
2023/06/19 05:18:59;;;;;;;1999.90;999.90;;;;;;;27.44;47.21;101091.84;5050257;28;20796;-65
2023/06/19 05:21:24;;;;;;;1999.90;999.90;;;;;;;25.68;51.58;101104.63;5051579;28;20028;-65
2023/06/19 05:23:50;;;;;;;1999.90;999.90;;;;;;;27.46;47.54;101089.88;5069106;28;20024;-65
2023/06/19 05:26:22;;;;;;;1999.90;999.90;;;;;;;26.85;46.88;101106.97;5068698;28;20100;-65
2023/06/19 05:28:48;;;;;;;1999.90;999.90;;;;;;;27.29;46.88;101103.75;5068858;28;20056;-65
2023/06/19 05:31:14;;;;;;;1999.90;999.90;;;;;;;26.58;48.50;101116.06;5069360;28;20075;-66
2023/06/19 05:33:40;;;;;;;1999.90;999.90;;;;;;;26.91;48.28;101117.25;5050199;28;20060;-65
2023/06/19 05:36:06;;;;;;;1999.90;999.90;;;;;;;27.56;45.51;101117.75;5069562;28;20526;-65
2023/06/19 05:38:31;;;;;;;1999.90;999.90;;;;;;;27.08;47.07;101128.53;5051254;28;20025;-65
2023/06/19 05:40:57;;;;;;;1999.90;999.90;;;;;;;26.72;48.81;101132.97;5071047;28;20074;-66
2023/06/19 05:43:24;;;;;;;1999.90;999.90;;;;;;;27.71;46.11;101120.19;5055300;28;20146;-65
2023/06/19 05:45:50;;;;;;;1999.90;999.90;;;;;;;28.19;44.36;101140.63;5073068;28;20024;-65
2023/06/19 05:48:15;;;;;;;1999.90;999.90;;;;;;;27.69;44.90;101132.88;5072614;28;20020;-65
2023/06/19 05:50:40;;;;;;;1999.90;999.90;;;;;;;28.23;44.37;101142.09;5072869;28;20083;-65
2023/06/19 05:53:06;;;;;;;1999.90;999.90;;;;;;;28.06;43.76;101146.13;5055091;28;20035;-65
2023/06/19 05:55:31;;;;;;;1999.90;999.90;;;;;;;26.78;46.25;101145.94;5054453;28;20049;-65
2023/06/19 05:57:57;;;;;;;1999.90;999.90;;;;;;;27.25;45.26;101146.88;5054676;28;20094;-66
2023/06/19 06:00:23;;;;;;;1999.90;999.90;;;;;;;26.72;47.53;101159.78;5072280;28;20562;-65
2023/06/19 06:02:50;;;;;;;1999.90;999.90;;;;;;;26.67;45.92;101167.31;5054502;28;20023;-64
2023/06/19 06:05:17;;;;;;;1999.90;999.90;;;;;;;27.91;43.89;101159.75;5055058;28;20121;-65
2023/06/19 06:07:42;;;;;;;1999.90;999.90;;;;;;;27.69;44.01;101168.63;5053772;28;20016;-65
2023/06/19 06:10:08;;;;;;;1999.90;999.90;;;;;;;27.83;43.73;101172.94;5054898;28;20436;-65
2023/06/19 06:12:37;;;;;;;1999.90;999.90;;;;;;;26.73;45.73;101172.22;5054910;28;20028;-64
2023/06/19 06:15:05;;;;;;;1999.90;999.90;;;;;;;26.72;46.01;101186.59;5054015;28;20104;-65
2023/06/19 06:17:31;;;;;;;1999.90;999.90;;;;;;;27.09;44.62;101179.38;5054699;28;20078;-65
2023/06/19 06:19:56;;;;;;;1999.90;999.90;;;;;;;27.40;44.39;101176.25;5054300;28;20103;-65
2023/06/19 06:22:21;;;;;;;1999.90;999.90;;;;;;;27.03;45.11;101189.72;5072014;28;20365;-65
2023/06/19 06:24:47;;;;;;;1999.90;999.90;;;;;;;25.70;48.80;101193.69;5071938;28;20028;-65
2023/06/19 06:27:13;;;;;;;1999.90;999.90;;;;;;;26.23;47.18;101205.19;5054900;28;20016;-65
2023/06/19 06:29:39;;;;;;;1999.90;999.90;;;;;;;27.09;45.77;101206.22;5052994;28;20393;-65
2023/06/19 06:32:05;;;;;;;1999.90;999.90;;;;;;;27.47;45.13;101203.47;5054553;28;20024;-65
2023/06/19 06:34:32;;;;;;;1999.90;999.90;;;;;;;28.33;42.49;101212.09;5054312;28;20117;-65
2023/06/19 06:36:58;;;;;;;1999.90;999.90;;;;;;;27.58;43.79;101215.09;5053247;28;20384;-65
2023/06/19 06:39:24;;;;;;;1999.90;999.90;;;;;;;27.99;43.12;101209.34;5072377;28;20043;-65
2023/06/19 06:41:49;;;;;;;1999.90;999.90;;;;;;;27.75;43.22;101215.63;5053759;28;20559;-65
2023/06/19 06:44:14;;;;;;;1999.90;999.90;;;;;;;27.50;44.74;101214.81;5053456;28;20029;-65
2023/06/19 06:46:40;;;;;;;1999.90;999.90;;;;;;;27.58;43.94;101219.63;5053642;28;20124;-65
2023/06/19 06:49:05;;;;;;;1999.90;999.90;;;;;;;27.71;43.81;101227.59;5054004;28;20123;-65
2023/06/19 06:51:31;;;;;;;1999.90;999.90;;;;;;;27.83;43.35;101225.78;5053050;28;20473;-65
2023/06/19 06:53:56;;;;;;;1999.90;999.90;;;;;;;28.08;42.17;101231.00;5053742;28;20059;-65
2023/06/19 06:56:21;;;;;;;1999.90;999.90;;;;;;;26.81;45.18;101244.91;5071684;28;20044;-65
2023/06/19 06:58:47;;;;;;;1999.90;999.90;;;;;;;27.58;43.69;101241.94;5052730;28;20066;-65
2023/06/19 07:01:12;;;;;;;1999.90;999.90;;;;;;;27.61;43.77;101248.06;5071920;28;20166;-65
2023/06/19 07:03:39;;;;;;;1999.90;999.90;;;;;;;27.55;43.42;101255.59;5053031;28;20056;-65
2023/06/19 07:06:04;;;;;;;1999.90;999.90;;;;;;;27.56;43.49;101262.69;5053832;28;20373;-65
2023/06/19 07:08:30;;;;;;;1999.90;999.90;;;;;;;28.20;41.92;101261.41;5053829;28;20078;-65
2023/06/19 07:10:55;;;;;;;1999.90;999.90;;;;;;;28.66;41.30;101267.72;5052294;28;20052;-65
2023/06/19 07:13:21;;;;;;;1999.90;999.90;;;;;;;28.85;40.93;101267.09;5053860;28;20021;-65
2023/06/19 07:15:46;;;;;;;1999.90;999.90;;;;;;;29.02;40.40;101267.56;5053297;28;20028;-65
2023/06/19 07:18:11;;;;;;;1999.90;999.90;;;;;;;29.59;39.42;101271.81;5071211;28;20027;-66
2023/06/19 07:20:37;;;;;;;1999.90;999.90;;;;;;;29.83;39.10;101265.34;5071125;28;20032;-65
2023/06/19 07:23:02;;;;;;;1999.90;999.90;;;;;;;30.11;38.15;101262.97;5071701;28;20540;-66
2023/06/19 07:25:28;;;;;;;1999.90;999.90;;;;;;;29.64;39.20;101262.50;5070650;28;20040;-65
2023/06/19 07:27:53;;;;;;;1999.90;999.90;;;;;;;28.87;40.47;101266.97;5052957;28;20028;-65
2023/06/19 07:30:19;;;;;;;1999.90;999.90;;;;;;;29.61;39.30;101264.44;5053508;28;20139;-66
2023/06/19 07:32:44;;;;;;;1999.90;999.90;;;;;;;30.09;38.21;101268.50;5052172;28;20107;-65
2023/06/19 07:35:11;;;;;;;1999.90;999.90;;;;;;;30.43;38.18;101270.09;5071487;28;20055;-66
2023/06/19 07:37:36;;;;;;;1999.90;999.90;;;;;;;28.22;42.32;101280.97;5052810;28;20040;-66
2023/06/19 07:40:03;;;;;;;1999.90;999.90;;;;;;;28.48;41.47;101280.78;5052738;28;20055;-65
2023/06/19 07:42:28;;;;;;;1999.90;999.90;;;;;;;28.49;41.52;101287.84;5053026;28;20081;-65
2023/06/19 07:44:53;;;;;;;1999.90;999.90;;;;;;;29.01;40.54;101285.53;5052681;28;20371;-66
2023/06/19 07:47:20;;;;;;;1999.90;999.90;;;;;;;28.89;41.74;101279.31;5052128;28;20059;-65
2023/06/19 07:49:46;;;;;;;1999.90;999.90;;;;;;;29.10;41.20;101281.25;5070399;28;20063;-64
2023/06/19 07:52:11;;;;;;;1999.90;999.90;;;;;;;29.41;40.50;101279.56;5053040;28;20036;-64
2023/06/19 07:54:57;;;;;;;1999.90;999.90;;;;;;;29.15;40.58;101284.41;5052060;28;20029;-64
2023/06/19 07:57:24;;;;;;;1999.90;999.90;;;;;;;30.18;38.79;101282.19;5070825;28;20122;-64
2023/06/19 07:59:50;;;;;;;1999.90;999.90;;;;;;;30.26;38.51;101285.06;5051622;28;20040;-64
2023/06/19 08:02:16;;;;;;;1999.90;999.90;;;;;;;30.37;38.11;101284.13;5052241;28;20020;-65
2023/06/19 08:04:42;;;;;;;1999.90;999.90;;;;;;;30.74;37.24;101283.63;5070140;28;20033;-64
2023/06/19 08:07:07;;;;;;;1999.90;999.90;;;;;;;29.83;38.61;101297.66;5052157;28;20028;-64
2023/06/19 08:09:33;;;;;;;1999.90;999.90;;;;;;;29.16;39.48;101291.50;5052486;28;20449;-63
2023/06/19 08:11:59;;;;;;;1999.90;999.90;;;;;;;28.75;40.87;101288.47;5052208;28;20029;-64
2023/06/19 08:14:24;;;;;;;1999.90;999.90;;;;;;;31.12;37.12;101291.00;5069874;28;20556;-65
2023/06/19 08:16:49;;;;;;;1999.90;999.90;;;;;;;29.64;39.51;101292.97;5051750;28;20060;-65
2023/06/19 08:19:15;;;;;;;1999.90;999.90;;;;;;;31.44;36.47;101298.00;5070582;28;20021;-65
2023/06/19 08:21:40;;;;;;;1999.90;999.90;;;;;;;31.07;36.83;101308.59;5051093;28;20400;-64
2023/06/19 08:24:06;;;;;;;1999.90;999.90;;;;;;;29.32;39.41;101315.34;5052273;28;20029;-64
2023/06/19 08:26:31;;;;;;;1999.90;999.90;;;;;;;29.78;39.09;101324.13;5070252;28;20024;-64
2023/06/19 08:28:57;;;;;;;1999.90;999.90;;;;;;;29.22;39.67;101326.00;5050949;28;20086;-65
2023/06/19 08:31:27;;;;;;;1999.90;999.90;;;;;;;29.78;39.05;101332.22;5070218;28;20032;-65
2023/06/19 08:33:53;;;;;;;1999.90;999.90;;;;;;;28.91;40.40;101324.94;5051617;28;20026;-65
2023/06/19 08:36:19;;;;;;;1999.90;999.90;;;;;;;29.69;38.84;101336.53;5051482;28;20028;-65
2023/06/19 08:38:44;;;;;;;1999.90;999.90;;;;;;;28.25;41.50;101345.22;5051156;28;20028;-65
2023/06/19 08:41:10;;;;;;;1999.90;999.90;;;;;;;27.78;42.69;101341.63;5070150;28;20079;-65
2023/06/19 08:43:35;;;;;;;1999.90;999.90;;;;;;;29.02;40.26;101340.22;5050518;28;20035;-64
2023/06/19 08:46:10;;;;;;;1999.90;999.90;;;;;;;30.67;37.32;101336.41;5070095;28;20064;-64
2023/06/19 08:48:36;;;;;;;1999.90;999.90;;;;;;;30.09;38.62;101335.03;5051512;28;20488;-64
2023/06/19 08:51:04;;;;;;;1999.90;999.90;;;;;;;30.86;37.42;101325.69;5051307;28;20031;-65
2023/06/19 08:53:29;;;;;;;1999.90;999.90;;;;;;;32.11;34.70;101330.56;5069687;28;20028;-65
2023/06/19 08:55:57;;;;;;;1999.90;999.90;;;;;;;29.82;37.83;101325.56;5051184;28;20098;-65
2023/06/19 08:58:23;;;;;;;1999.90;999.90;;;;;;;30.78;36.98;101323.66;5069120;28;20068;-65
2023/06/19 09:00:49;;;;;;;1999.90;999.90;;;;;;;31.14;35.94;101328.66;5051268;28;20388;-66
2023/06/19 09:03:21;;;;;;;1999.90;999.90;;;;;;;30.35;37.97;101343.59;5050964;28;20029;-65
2023/06/19 09:05:49;;;;;;;1999.90;999.90;;;;;;;30.37;37.73;101341.59;5068886;28;20082;-65
2023/06/19 09:08:17;;;;;;;1999.90;999.90;;;;;;;32.60;34.41;101333.19;5069581;28;20016;-66
2023/06/19 09:10:53;;;;;;;1694.18;999.90;;;;;;;32.36;34.06;101349.06;5050446;28;20377;-65
2023/06/19 09:13:18;;;;;;;1652.07;999.90;;;;;;;32.74;33.89;101341.84;5051515;28;20096;-66
2023/06/19 09:15:44;;;;;;;1641.25;999.90;;;;;;;31.69;35.25;101354.34;5050102;28;20127;-66
2023/06/19 09:18:11;;;;;;;1642.38;999.90;;;;;;;32.46;32.85;101363.41;5068371;28;20032;-67
2023/06/19 09:20:44;;;;;;;1558.10;999.90;;;;;;;31.66;34.38;101365.44;5050932;28;20437;-65
2023/06/19 09:23:11;;;;;;;1538.82;999.90;;;;;;;31.66;34.88;101366.28;5051385;28;20028;-66
2023/06/19 09:25:51;;;;;;;1595.22;999.90;;;;;;;31.37;35.18;101369.75;5050198;28;20485;-65
2023/06/19 09:28:21;;;;;;;1590.85;999.90;;;;;;;32.38;33.63;101376.81;5051031;28;20028;-66
2023/06/19 09:30:57;;;;;;;1572.38;999.90;;;;;;;32.50;33.70;101375.63;5068916;28;20035;-66
2023/06/19 09:33:26;;;;;;;1617.03;999.90;;;;;;;32.44;33.88;101381.66;5050576;28;20499;-65
2023/06/19 09:35:53;;;;;;;1574.65;999.90;;;;;;;32.40;33.93;101383.78;5068650;28;20056;-65
2023/06/19 09:38:24;;;;;;;1563.00;999.90;;;;;;;32.71;33.43;101371.91;5050464;28;20035;-66
2023/06/19 09:40:51;;;;;;;1549.32;999.90;;;;;;;33.31;32.35;101375.06;5050587;28;20106;-66
2023/06/19 09:43:25;;;;;;;1521.78;999.90;;;;;;;34.81;30.45;101378.91;5051009;28;20024;-65
2023/06/19 09:45:55;;;;;;;1516.82;999.90;;;;;;;32.63;33.67;101392.41;5068400;28;20077;-66
2023/06/19 09:48:28;;;;;;;1523.95;999.90;;;;;;;32.38;33.28;101393.03;5069502;28;20021;-65
2023/06/19 09:50:59;;;;;;;1497.68;999.90;;;;;;;30.99;36.20;101392.06;5050821;28;20028;-66
2023/06/19 09:53:25;;;;;;;1576.60;999.90;;;;;;;32.51;32.98;101398.13;5050040;28;20476;-66
2023/06/19 09:55:50;;;;;;;1571.45;999.90;;;;;;;32.91;32.52;101395.19;5068645;28;20527;-65
2023/06/19 09:58:20;;;;;;;1527.00;999.90;;;;;;;32.13;34.01;101406.13;5050937;28;20048;-66
2023/06/19 10:00:47;;;;;;;1496.88;999.90;;;;;;;32.61;32.75;101407.91;5049789;28;20031;-66
2023/06/19 10:03:16;;;;;;;1515.90;999.90;;;;;;;32.42;33.03;101400.69;5050854;28;20472;-67
2023/06/19 10:05:42;;;;;;;1518.07;999.90;;;;;;;31.55;34.40;101402.34;5050294;28;20488;-65
2023/06/19 10:08:08;;;;;;;1541.82;999.90;;;;;;;35.00;30.30;101394.13;5068057;28;20399;-66
2023/06/19 10:10:36;;;;;;;1495.07;999.90;;;;;;;33.89;31.00;101394.66;5069074;28;20032;-66
2023/06/19 10:13:15;;;;;;;1406.30;999.90;;;;;;;34.24;29.71;101397.47;5068816;28;20024;-65
2023/06/19 10:15:43;;;;;;;1406.28;999.90;;;;;;;34.86;28.72;101405.59;5049728;28;20051;-65
2023/06/19 10:18:17;;;;;;;1395.43;999.90;;;;;;;34.44;29.50;101403.59;5050881;28;20024;-65
2023/06/19 10:20:43;;;;;;;1390.32;999.90;;;;;;;34.32;28.81;101403.88;5067607;28;20032;-66
2023/06/19 10:23:17;;;;;;;1385.40;999.90;;;;;;;37.32;26.86;101395.84;5050711;28;20037;-66
2023/06/19 10:25:45;;;;;;;1278.07;999.90;;;;;;;35.81;27.42;101394.53;5069189;28;20024;-65
2023/06/19 10:28:21;;;;;;;1251.55;999.90;;;;;;;34.40;28.68;101403.06;5071702;28;20051;-67
2023/06/19 10:30:53;;;;;;;1254.10;999.90;;;;;;;36.42;26.74;101404.28;5054189;28;20032;-65
2023/06/19 10:33:18;;;;;;;1180.82;999.90;;;;;;;36.34;26.89;101397.84;5072411;28;20043;-65
2023/06/19 10:35:43;;;;;;;1167.68;999.90;;;;;;;35.88;27.44;101412.94;5053428;28;20151;-66
2023/06/19 10:38:10;;;;;;;1203.00;999.90;;;;;;;34.04;29.71;101404.97;5072396;28;20103;-65
2023/06/19 10:40:38;;;;;;;1260.45;999.90;;;;;;;35.83;27.20;101400.69;5071749;28;20028;-65
2023/06/19 10:43:04;;;;;;;1189.07;999.90;;;;;;;34.31;28.69;101391.31;5071605;28;20036;-65
2023/06/19 10:45:29;;;;;;;1202.95;999.90;;;;;;;33.71;29.57;101396.50;5054301;28;20079;-65